• Join FlightAware (Why Join?)
  • Login
  • US Flag 
01:56AM EDT


 

Airport Tracker/Info


-or-


 

Live Flight TrackerFlight Track Log ✈ C-GUFZ ✈ 30-Apr-2014 ✈ CYPK - CYPK

Flight Track Log - Related Links

Times and Time Zones

All times are in EDT time to prevent confusion due to time zone crossing. See the C-GUFZ flight status page for this flight to view local times or setup timezone preferences in your user account.

Time Position Orientation Groundspeed Altitude Reporting Facility
EDT Latitude Longitude Course Direction KTS MPH feet Rate Location/Type
04:57PM 49.2000 -122.7333 270° West 60 69 100  Level Vancouver Center
04:58PM 49.2000 -122.7500 270° West 90 104 1,100 900 Climbing Vancouver Center
04:59PM 49.1833 -122.7333 147° Southeast 110 127 1,900 780 Climbing Vancouver Center
05:00PM 49.1833 -122.6833 90° East 130 150 2,700 660 Climbing Vancouver Center
05:01PM 49.1500 -122.6500 147° Southeast 140 161 3,300 600 Climbing Vancouver Center
05:02PM 49.1167 -122.6500 180° South 140 161 3,900 300 Climbing Vancouver Center
05:03PM 49.0667 -122.6333 168° South 150 173 4,000  Climbing Vancouver Center
05:04PM 49.0333 -122.6000 147° Southeast 160 184 4,000  Level Vancouver Center
05:05PM 49.0000 -122.6333 213° Southwest 160 184 4,000  Level Vancouver Center
05:06PM 48.9500 -122.6833 213° Southwest 160 184 4,000 60 Level Vancouver Center
05:07PM 48.9333 -122.7333 243° Southwest 160 184 4,200 540 Climbing Vancouver Center
05:08PM 48.9000 -122.7667 213° Southwest 150 173 5,100 780 Climbing Vancouver Center
05:09PM 48.8667 -122.8167 225° Southwest 140 161 5,800 420 Climbing Vancouver Center
05:10PM 48.8500 -122.8833 249° West 160 184 6,000 60 Climbing Vancouver Center
05:11PM 48.8333 -122.9333 243° Southwest 170 196 6,000  Level Vancouver Center
05:12PM 48.8167 -123.0167 253° West 170 196 6,000  Level Vancouver Center
05:13PM 48.8000 -123.0833 249° West 170 196 6,000 -180 Level Vancouver Center
05:14PM 48.7833 -123.1667 253° West 170 196 5,700 -540 Descending Vancouver Center
05:15PM 48.7833 -123.2500 270° West 180 207 5,000 -660 Descending Vancouver Center
05:16PM 48.7833 -123.3167 270° West 190 219 4,400 -540 Descending Vancouver Center
05:17PM 48.7667 -123.4000 253° West 180 207 4,000 -240 Descending Vancouver Center
05:18PM 48.7667 -123.4500 270° West 170 196 4,000  Level Vancouver Center
05:19PM 48.7667 -123.5167 270° West 160 184 4,000 -120 Level Vancouver Center
05:20PM 48.7500 -123.6000 253° West 170 196 3,800 -420 Descending Vancouver Center
05:21PM 48.7333 -123.6500 243° Southwest 160 184 3,200 -420 Descending Vancouver Center
05:22PM 48.7000 -123.6500 180° South 140 161 3,000 -180 Descending Vancouver Center
05:23PM 48.6667 -123.6500 180° South 120 138 2,900 -300 Descending Vancouver Center
05:24PM 48.6667 -123.6000 90° East 140 161 2,400 -720 Descending Vancouver Center
05:25PM 48.6500 -123.5500 117° Southeast 140 161 1,500 -780 Descending Vancouver Center
05:26PM 48.6333 -123.5000 117° Southeast 110 127 900 -600 Descending Vancouver Center
05:27PM 48.6333 -123.4500 90° East 100 115 400 -60 Descending Vancouver Center
05:28PM 48.6333 -123.4167 90° East 110 127 800 600 Climbing Vancouver Center
05:29PM 48.6167 -123.3667 117° Southeast 130 150 1,600 780 Climbing Vancouver Center
05:30PM 48.6000 -123.3167 117° Southeast 130 150 2,400 600 Climbing Vancouver Center
05:31PM 48.6333 -123.3000 18° North 140 161 2,900 480 Climbing Vancouver Center
05:32PM 48.6667 -123.3000 360° North 160 184 3,400 480 Climbing Vancouver Center
05:33PM 48.7167 -123.3000 360° North 160 184 3,900 300 Climbing Vancouver Center
05:34PM 48.7500 -123.3500 315° West 170 196 4,000  Climbing Vancouver Center
05:35PM 48.7500 -123.4167 270° West 170 196 4,000  Level Vancouver Center
05:36PM 48.7500 -123.5000 270° West 170 196 4,000  Level Vancouver Center
05:37PM 48.7500 -123.5667 270° West 160 184 4,000  Level Vancouver Center
05:38PM 48.7500 -123.6167 270° West 160 184 4,000 -300 Level Vancouver Center
05:39PM 48.7167 -123.6500 213° Southwest 150 173 3,400 -480 Descending Vancouver Center
05:40PM 48.6833 -123.6667 198° South 150 173 3,100 -300 Descending Vancouver Center
05:41PM 48.6667 -123.6167 117° Southeast 120 138 2,800 -420 Descending Vancouver Center
05:42PM 48.6500 -123.5667 117° Southeast 110 127 2,300 -720 Descending Vancouver Center
05:43PM 48.6500 -123.5167 90° East 100 115 1,400 -720 Descending Vancouver Center
05:44PM 48.6333 -123.5000 147° Southeast 90 104 900 -540 Descending Vancouver Center
05:45PM 48.6333 -123.4500 90° East 90 104 400  Descending Vancouver Center
05:46PM 48.6333 -123.4167 90° East 100 115 1,000 600 Climbing Vancouver Center
05:47PM 48.6167 -123.3667 117° Southeast 110 127 1,700 780 Climbing Vancouver Center
05:48PM 48.6167 -123.3167 90° East 120 138 2,600 600 Climbing Vancouver Center
05:49PM 48.6167 -123.3000 90° East 140 161 2,900 180 Climbing Vancouver Center
05:50PM 48.6667 -123.2667 24° Northeast 160 184 3,000  Climbing Vancouver Center
05:51PM 48.7000 -123.2167 45° Northeast 160 184 3,000 300 Level Vancouver Center
05:52PM 48.7167 -123.1667 63° Northeast 150 173 3,700 780 Climbing Vancouver Center
05:53PM 48.7333 -123.1167 63° Northeast 140 161 4,600 600 Climbing Vancouver Center
05:54PM 48.7500 -123.0667 63° Northeast 140 161 5,000 180 Climbing Vancouver Center
05:55PM 48.7833 -123.0167 45° Northeast 160 184 5,000  Level Vancouver Center
05:56PM 48.8000 -122.9333 73° East 160 184 5,000  Level Vancouver Center
05:57PM 48.8167 -122.8833 63° Northeast 160 184 5,000  Level Vancouver Center
05:58PM 48.8333 -122.8333 63° Northeast 160 184 5,000  Level Vancouver Center
05:59PM 48.8667 -122.7667 53° Northeast 160 184 5,000  Level Vancouver Center
06:00PM 48.8833 -122.7000 69° East 160 184 5,000  Level Vancouver Center
06:01PM 48.9000 -122.6500 63° Northeast 150 173 5,000  Level Vancouver Center
06:02PM 48.9167 -122.6000 63° Northeast 150 173 5,000  Level Vancouver Center
06:03PM 48.9167 -122.5500 90° East 140 161 5,000  Level Vancouver Center
06:04PM 48.9000 -122.5833 233° Southwest 140 161 5,000  Level Vancouver Center
06:05PM 48.8833 -122.6333 243° Southwest 150 173 5,000  Level Vancouver Center
06:06PM 48.9167 -122.6333 360° North 140 161 5,000  Level Vancouver Center
06:07PM 48.9333 -122.5833 63° Northeast 140 161 5,000 -60 Level Vancouver Center
06:08PM 48.9167 -122.5500 127° Southeast 120 138 4,900 -480 Descending Vancouver Center
06:09PM 48.9000 -122.6000 243° Southwest 160 184 4,100 -720 Descending Vancouver Center
06:10PM 48.9000 -122.6833 270° West 160 184 3,500 -600 Descending Vancouver Center
06:11PM 48.9000 -122.7333 270° West 150 173 3,000 -300 Descending Vancouver Center
06:12PM 48.9333 -122.7500 342° North 130 150 3,000  Level Vancouver Center
06:13PM 48.9667 -122.7000 45° Northeast 120 138 3,000  Level Vancouver Center
06:14PM 48.9833 -122.6833 33° Northeast 120 138 3,000 -120 Level Vancouver Center
06:15PM 48.9833 -122.6333 90° East 120 138 2,800 -360 Descending Vancouver Center
06:16PM 49.0000 -122.5833 63° Northeast 100 115 2,300 -540 Descending Vancouver Center
06:17PM 49.0000 -122.5500 90° East 100 115 1,800 -360 Descending Vancouver Center
06:18PM 49.0000 -122.5000 90° East 90 104 1,600 -240 Descending Vancouver Center
06:19PM 49.0000 -122.4500 90° East 100 115 1,400 -300 Descending Vancouver Center
06:20PM 49.0000 -122.4333 90° East 100 115 1,000 -300 Descending Vancouver Center
06:21PM 49.0000 -122.3667 90° East 100 115 900 60 Descending Vancouver Center
06:22PM 49.0000 -122.3500 90° East 100 115 1,200 600 Climbing Vancouver Center
06:23PM 48.9833 -122.3833 233° Southwest 120 138 2,200 780 Climbing Vancouver Center
06:24PM 48.9667 -122.4333 243° Southwest 130 150 2,800 360 Climbing Vancouver Center
06:25PM 48.9333 -122.5000 233° Southwest 150 173 3,000 60 Climbing Vancouver Center
06:26PM 48.9333 -122.5500 270° West 150 173 3,000 -300 Level Vancouver Center
06:27PM 48.9333 -122.6333 270° West 160 184 2,500 -480 Descending Vancouver Center
06:28PM 48.9667 -122.6500 342° North 150 173 2,100 -300 Descending Vancouver Center
06:29PM 48.9833 -122.6000 63° Northeast 150 173 1,900 -300 Descending Vancouver Center
06:30PM 49.0000 -122.5500 63° Northeast 130 150 1,600 -180 Descending Vancouver Center
06:31PM 49.0000 -122.5000 90° East 120 138 1,600 -60 Level Vancouver Center
06:32PM 49.0000 -122.4500 90° East 120 138 1,500 -240 Descending Vancouver Center
06:34PM 49.0000 -122.3667 90° East 100 115 900  Descending Vancouver Center
06:35PM 48.9833 -122.3833 213° Southwest 100 115 1,600 960 Climbing Vancouver Center
06:36PM 48.9667 -122.4333 243° Southwest 130 150 2,900 600 Climbing Vancouver Center
06:37PM 48.9500 -122.4833 243° Southwest 140 161 2,900 60 Level Vancouver Center
06:38PM 48.9833 -122.5000 342° North 150 173 3,100  Climbing Vancouver Center
06:39PM 49.0167 -122.5500 315° West 150 173 3,000 -60 Descending Vancouver Center
06:40PM 49.0667 -122.5833 336° Northwest 150 173 3,000  Level Vancouver Center
06:41PM 49.1000 -122.5833 360° North 140 161 3,000 -60 Level Vancouver Center
06:42PM 49.1333 -122.5667 18° North 130 150 2,900 -420 Descending Vancouver Center
06:43PM 49.1667 -122.6000 327° Northwest 120 138 2,200 -840 Descending Vancouver Center
06:44PM 49.1833 -122.6167 327° Northwest 120 138 1,300 -840 Descending Vancouver Center
06:45PM 49.2000 -122.6833 291° West 100 115 600 -600 Descending Vancouver Center
06:46PM 49.2000 -122.7000 270° West 80 92 100 -540 Descending Vancouver Center